createdAt,value
2023-05-02T00:00:33.938Z,16.52
2023-05-02T00:05:35.361Z,16.44
2023-05-02T00:10:36.892Z,16.29
2023-05-02T00:15:38.222Z,16.22
2023-05-02T00:20:40.872Z,16.23
2023-05-02T00:25:46.123Z,16.29
2023-05-02T00:30:47.565Z,16.20
2023-05-02T00:35:48.915Z,16.40
2023-05-02T00:40:53.493Z,16.43
2023-05-02T00:45:55.339Z,16.43
2023-05-02T00:50:57.379Z,16.32
2023-05-02T00:55:59.344Z,16.15
2023-05-02T01:01:19.626Z,16.10
2023-05-02T01:06:39.611Z,16.01
2023-05-02T01:12:05.624Z,15.81
2023-05-02T01:17:11.217Z,15.80
2023-05-02T01:22:14.398Z,15.73
2023-05-02T01:27:28.084Z,15.75
2023-05-02T01:32:33.434Z,15.83
2023-05-02T01:37:38.100Z,15.86
2023-05-02T01:42:41.274Z,15.75
2023-05-02T01:47:44.683Z,15.81
2023-05-02T01:52:47.466Z,15.81
2023-05-02T01:57:50.627Z,15.91
2023-05-02T02:02:55.758Z,16.01
2023-05-02T02:07:58.442Z,16.02
2023-05-02T02:13:26.364Z,16.05
2023-05-02T02:18:29.408Z,15.95
2023-05-02T02:23:33.752Z,15.89
2023-05-02T02:28:35.155Z,15.84
2023-05-02T02:33:36.720Z,15.87
2023-05-02T02:38:50.598Z,15.92
2023-05-02T02:44:26.010Z,15.79
2023-05-02T02:50:09.595Z,15.63
2023-05-02T02:55:25.031Z,15.51
2023-05-02T03:00:28.663Z,15.34
2023-05-02T03:05:32.845Z,15.18
2023-05-02T03:10:34.182Z,15.29
2023-05-02T03:15:59.087Z,15.12
2023-05-02T03:21:01.007Z,15.17
2023-05-02T03:26:02.884Z,15.12
2023-05-02T03:31:04.415Z,15.11
2023-05-02T03:36:07.084Z,15.06
2023-05-02T03:41:08.440Z,15.06
2023-05-02T03:46:11.500Z,14.92
2023-05-02T03:51:13.334Z,14.86
2023-05-02T03:56:20.033Z,14.79
2023-05-02T04:01:21.455Z,14.84
2023-05-02T04:06:22.906Z,15.05
2023-05-02T04:11:26.183Z,15.11
2023-05-02T04:16:27.541Z,15.06
2023-05-02T04:21:28.889Z,15.18
2023-05-02T04:26:30.330Z,14.95
2023-05-02T04:31:32.767Z,14.72
2023-05-02T04:36:34.625Z,14.76
2023-05-02T05:03:33.589Z,14.52
2023-05-02T05:08:35.110Z,14.48
2023-05-02T05:13:36.431Z,14.66
2023-05-02T05:18:40.784Z,14.71
2023-05-02T05:23:45.916Z,14.56
2023-05-02T05:28:47.347Z,14.62
2023-05-02T05:33:48.712Z,14.68
2023-05-02T05:38:50.828Z,14.83
2023-05-02T05:43:52.234Z,14.89
2023-05-02T05:48:53.596Z,15.06
2023-05-02T05:53:55.448Z,15.27
2023-05-02T05:58:56.817Z,15.47
2023-05-02T06:03:58.999Z,15.59
2023-05-02T06:09:00.903Z,15.75
2023-05-02T06:14:02.358Z,15.88
2023-05-02T06:19:03.799Z,15.94
2023-05-02T06:24:05.520Z,15.77
2023-05-02T06:29:06.967Z,15.71
2023-05-02T06:34:08.289Z,15.62
2023-05-02T06:39:09.630Z,15.65
2023-05-02T06:44:10.969Z,15.75
2023-05-02T06:49:12.528Z,15.95
2023-05-02T06:54:15.696Z,16.06
2023-05-02T06:59:17.140Z,16.45
2023-05-02T07:04:18.518Z,16.99
2023-05-02T07:09:19.923Z,17.22
2023-05-02T07:14:21.698Z,17.17
2023-05-02T07:19:23.043Z,17.12
2023-05-02T07:24:24.371Z,17.00
2023-05-02T07:29:25.980Z,16.66
2023-05-02T07:34:27.338Z,16.84
2023-05-02T07:39:28.947Z,16.97
2023-05-02T07:44:30.294Z,16.82
2023-05-02T07:49:31.638Z,16.59
2023-05-02T07:54:32.984Z,16.36
2023-05-02T07:59:34.419Z,16.14
2023-05-02T08:04:35.859Z,16.26
2023-05-02T08:09:37.245Z,16.50
2023-05-02T08:14:38.580Z,16.73
2023-05-02T08:19:39.930Z,16.69
2023-05-02T08:24:41.253Z,16.57
2023-05-02T08:29:42.602Z,16.66
2023-05-02T08:34:43.927Z,16.54
2023-05-02T08:39:45.329Z,16.66
2023-05-02T08:44:48.343Z,16.72
2023-05-02T08:49:50.063Z,16.71
2023-05-02T08:54:52.226Z,16.70
2023-05-02T08:59:53.745Z,16.96
2023-05-02T09:04:59.634Z,16.87
2023-05-02T09:10:01.086Z,17.03
2023-05-02T09:15:19.869Z,16.73
2023-05-02T09:20:22.344Z,16.66
2023-05-02T09:25:23.850Z,16.88
2023-05-02T09:30:26.511Z,17.64
2023-05-02T09:35:28.007Z,17.94
2023-05-02T09:40:30.126Z,18.17
2023-05-02T09:45:31.541Z,18.43
2023-05-02T09:50:37.747Z,18.53
2023-05-02T09:55:39.527Z,18.57
2023-05-02T10:00:45.029Z,18.35
2023-05-02T10:05:47.779Z,18.45
2023-05-02T10:10:57.462Z,18.70
2023-05-02T10:16:04.235Z,19.56
2023-05-02T10:21:11.818Z,19.56
2023-05-02T10:26:16.131Z,20.11
2023-05-02T10:31:18.451Z,20.48
2023-05-02T10:36:22.353Z,21.07
2023-05-02T10:41:26.841Z,21.02
2023-05-02T10:46:41.147Z,21.24
2023-05-02T10:51:43.463Z,21.32
2023-05-02T10:57:03.171Z,22.10
2023-05-02T11:02:28.036Z,22.33
2023-05-02T11:07:34.535Z,22.22
2023-05-02T11:12:52.997Z,22.06
2023-05-02T11:18:07.226Z,21.90
2023-05-02T11:23:15.239Z,22.19
2023-05-02T11:28:38.630Z,22.28
2023-05-02T11:33:40.212Z,22.36
2023-05-02T11:38:41.647Z,22.37
2023-05-02T11:43:43.018Z,22.40
2023-05-02T11:48:45.053Z,22.24
2023-05-02T11:53:46.414Z,22.02
2023-05-02T11:58:58.815Z,21.77
2023-05-02T12:04:10.368Z,21.35
2023-05-02T12:09:19.152Z,21.59
2023-05-02T12:14:32.517Z,23.36
2023-05-02T12:19:34.800Z,22.27
2023-05-02T12:24:36.583Z,21.32
2023-05-02T12:29:45.425Z,20.78
2023-05-02T12:34:46.801Z,20.58
2023-05-02T12:39:48.175Z,20.67
2023-05-02T12:44:54.344Z,20.69
2023-05-02T12:49:57.874Z,20.18
2023-05-02T12:55:18.574Z,19.80
2023-05-02T13:00:20.001Z,19.56
2023-05-02T13:05:21.476Z,19.65
2023-05-02T13:10:24.804Z,20.09
2023-05-02T13:15:26.168Z,20.90
2023-05-02T13:20:27.597Z,21.30
2023-05-02T13:25:29.004Z,20.99
2023-05-02T13:30:30.718Z,21.26
2023-05-02T13:35:33.401Z,20.99
2023-05-02T13:40:36.582Z,20.39
2023-05-02T13:45:37.921Z,21.20
2023-05-02T13:50:39.395Z,21.54
2023-05-02T13:55:40.908Z,22.53
2023-05-02T14:00:42.541Z,23.64
2023-05-02T14:05:43.945Z,24.87
2023-05-02T14:10:45.382Z,25.38
2023-05-02T14:15:46.820Z,25.84
2023-05-02T14:20:48.189Z,25.80
2023-05-02T14:25:49.567Z,26.12
2023-05-02T14:30:51.332Z,25.37
2023-05-02T14:35:52.715Z,25.09
2023-05-02T14:40:54.930Z,23.97
2023-05-02T14:45:57.550Z,23.61
2023-05-02T14:51:00.660Z,23.17
2023-05-02T14:56:02.105Z,23.66
2023-05-02T15:01:03.540Z,24.40
2023-05-02T15:06:05.124Z,24.41
2023-05-02T15:11:06.740Z,24.06
2023-05-02T15:16:10.524Z,23.00
2023-05-02T15:21:11.972Z,23.32
2023-05-02T15:26:13.366Z,22.65
2023-05-02T15:31:14.849Z,22.50
2023-05-02T15:36:16.775Z,22.42
2023-05-02T15:41:18.110Z,22.31
2023-05-02T15:46:19.508Z,22.13
2023-05-02T15:51:20.840Z,22.46
2023-05-02T15:56:22.739Z,22.51
2023-05-02T16:01:24.339Z,22.69
2023-05-02T16:06:27.524Z,22.35
2023-05-02T16:11:28.944Z,22.12
2023-05-02T16:16:30.387Z,22.11
2023-05-02T16:21:31.933Z,22.27
2023-05-02T16:26:33.889Z,22.58
2023-05-02T16:31:35.336Z,22.67
2023-05-02T16:36:36.759Z,22.88
2023-05-02T16:41:38.194Z,22.84
2023-05-02T16:46:39.551Z,22.65
2023-05-02T16:51:40.887Z,22.91
2023-05-02T16:56:42.676Z,22.49
2023-05-02T17:01:44.412Z,22.64
2023-05-02T17:06:45.814Z,22.22
2023-05-02T17:11:47.253Z,22.00
2023-05-02T17:16:48.712Z,22.49
2023-05-02T17:26:53.179Z,22.65
2023-05-02T17:31:57.320Z,22.25
2023-05-02T17:36:58.962Z,21.59
2023-05-02T17:42:01.094Z,21.48
2023-05-02T17:47:03.347Z,21.38
2023-05-02T17:52:05.616Z,20.80
2023-05-02T17:57:07.003Z,20.13
2023-05-02T18:02:10.415Z,19.53
2023-05-02T18:07:11.927Z,19.05
2023-05-02T18:12:13.358Z,18.65
2023-05-02T18:17:14.886Z,18.30
2023-05-02T18:22:19.739Z,17.90
2023-05-02T18:27:21.293Z,17.59
2023-05-02T18:32:22.677Z,17.23
2023-05-02T18:37:31.062Z,16.88
2023-05-02T18:42:32.468Z,16.66
2023-05-02T18:47:34.922Z,16.37
2023-05-02T18:52:36.583Z,16.11
2023-05-02T18:57:38.052Z,15.66
2023-05-02T19:02:39.539Z,15.36
2023-05-02T19:07:41.003Z,15.10
2023-05-02T19:12:43.870Z,14.85
2023-05-02T19:17:45.566Z,14.61
2023-05-02T19:22:47.359Z,14.42
2023-05-02T19:27:49.800Z,14.27
2023-05-02T19:32:51.256Z,14.16
2023-05-02T19:37:52.664Z,13.98
2023-05-02T19:42:54.058Z,13.87
2023-05-02T19:47:56.294Z,13.74
2023-05-02T19:52:57.945Z,13.64
2023-05-02T19:58:00.554Z,13.54
2023-05-02T20:03:02.160Z,13.38
2023-05-02T20:08:03.750Z,13.32
2023-05-02T20:13:05.498Z,13.23
2023-05-02T20:18:06.922Z,13.05
2023-05-02T20:23:08.321Z,12.93
2023-05-02T20:28:10.293Z,12.78
2023-05-02T20:33:16.169Z,12.65
2023-05-02T20:38:20.336Z,12.53
2023-05-02T20:43:22.800Z,12.44
2023-05-02T20:48:24.124Z,12.42
2023-05-02T20:53:25.480Z,12.30
2023-05-02T20:58:26.857Z,12.22
2023-05-02T21:03:28.465Z,12.12
2023-05-02T21:08:29.867Z,12.07
2023-05-02T21:13:31.241Z,11.94
2023-05-02T21:18:32.569Z,11.86
2023-05-02T21:23:34.452Z,11.75
2023-05-02T21:28:38.839Z,11.68
2023-05-02T21:33:41.471Z,11.59
2023-05-02T21:38:42.929Z,11.48
2023-05-02T21:43:44.921Z,11.41
2023-05-02T21:48:46.307Z,11.31
2023-05-02T21:53:47.726Z,11.22
2023-05-02T21:58:51.171Z,11.17
2023-05-02T22:03:52.520Z,11.17
2023-05-02T22:08:53.833Z,11.14
2023-05-02T22:13:55.161Z,11.08
2023-05-02T22:18:57.819Z,11.01
2023-05-02T22:23:59.396Z,10.96
2023-05-02T22:29:00.747Z,10.91
2023-05-02T22:34:02.066Z,10.84
2023-05-02T22:39:03.929Z,10.77
2023-05-02T22:44:05.532Z,10.80
2023-05-02T22:49:10.235Z,10.74
2023-05-02T22:54:11.637Z,10.63
2023-05-02T22:59:12.956Z,10.56
2023-05-02T23:04:14.888Z,10.45
2023-05-02T23:09:16.277Z,10.39
2023-05-02T23:14:20.511Z,10.31
2023-05-02T23:19:21.821Z,10.26
2023-05-02T23:24:23.267Z,10.20
2023-05-02T23:29:25.618Z,10.10
2023-05-02T23:34:27.089Z,10.09
2023-05-02T23:39:28.495Z,10.01
2023-05-02T23:44:30.581Z,9.95
2023-05-02T23:49:32.056Z,9.86
2023-05-02T23:54:34.819Z,9.85
2023-05-02T23:59:36.126Z,9.81
